createdAt,value
2023-04-28T00:02:08.006Z,52.89
2023-04-28T00:04:37.860Z,53.00
2023-04-28T00:07:07.216Z,53.06
2023-04-28T00:09:36.836Z,53.04
2023-04-28T00:12:07.435Z,52.86
2023-04-28T00:14:40.353Z,52.92
2023-04-28T00:17:10.819Z,52.97
2023-04-28T00:19:40.618Z,52.80
2023-04-28T00:22:37.114Z,53.06
2023-04-28T00:25:08.487Z,53.01
2023-04-28T00:27:38.229Z,53.14
2023-04-28T00:30:09.372Z,52.98
2023-04-28T00:32:40.236Z,52.96
2023-04-28T00:35:11.610Z,52.97
2023-04-28T00:37:40.795Z,53.17
2023-04-28T00:40:11.462Z,53.23
2023-04-28T00:42:42.689Z,53.08
2023-04-28T00:45:12.842Z,53.02
2023-04-28T00:47:43.766Z,53.11
2023-04-28T00:50:15.499Z,53.41
2023-04-28T00:52:46.746Z,53.73
2023-04-28T00:55:17.328Z,53.51
2023-04-28T00:57:47.239Z,53.63
2023-04-28T01:00:17.031Z,53.55
2023-04-28T01:02:47.745Z,53.66
2023-04-28T01:05:17.600Z,53.63
2023-04-28T01:07:49.381Z,53.73
2023-04-28T01:10:21.467Z,53.97
2023-04-28T01:12:50.748Z,53.69
2023-04-28T01:15:22.103Z,54.20
2023-04-28T01:17:53.171Z,53.76
2023-04-28T01:20:25.854Z,53.71
2023-04-28T01:22:55.134Z,54.04
2023-04-28T01:25:27.410Z,54.06
2023-04-28T01:27:56.830Z,54.06
2023-04-28T01:30:27.133Z,54.25
2023-04-28T01:32:57.731Z,54.10
2023-04-28T01:35:29.746Z,54.08
2023-04-28T01:38:00.479Z,54.41
2023-04-28T01:40:32.648Z,54.41
2023-04-28T01:43:03.286Z,54.64
2023-04-28T01:45:34.423Z,54.38
2023-04-28T01:48:06.608Z,54.28
2023-04-28T01:50:37.084Z,54.24
2023-04-28T01:53:08.514Z,54.20
2023-04-28T01:55:39.267Z,54.40
2023-04-28T01:58:08.922Z,54.39
2023-04-28T02:00:39.396Z,54.49
2023-04-28T02:03:12.407Z,54.66
2023-04-28T02:05:43.757Z,54.34
2023-04-28T02:08:12.545Z,54.30
2023-04-28T02:10:41.997Z,54.44
2023-04-28T02:13:15.185Z,54.61
2023-04-28T02:15:45.629Z,54.67
2023-04-28T02:18:19.312Z,54.81
2023-04-28T02:20:48.804Z,54.70
2023-04-28T02:23:18.750Z,54.50
2023-04-28T02:25:49.088Z,54.58
2023-04-28T02:28:20.596Z,54.73
2023-04-28T02:30:56.254Z,54.65
2023-04-28T02:33:26.211Z,54.77
2023-04-28T02:36:02.825Z,54.75
2023-04-28T02:38:34.571Z,55.07
2023-04-28T02:41:06.606Z,55.00
2023-04-28T02:43:37.684Z,55.00
2023-04-28T02:46:07.847Z,55.14
2023-04-28T02:48:37.717Z,55.08
2023-04-28T02:51:07.786Z,55.38
2023-04-28T02:53:37.659Z,55.39
2023-04-28T02:56:08.884Z,55.59
2023-04-28T02:58:37.655Z,55.40
2023-04-28T03:01:07.562Z,55.53
2023-04-28T03:03:39.336Z,55.54
2023-04-28T03:06:09.041Z,55.64
2023-04-28T03:08:41.256Z,55.82
2023-04-28T03:11:12.570Z,55.79
2023-04-28T03:13:42.028Z,55.55
2023-04-28T03:16:12.266Z,55.61
2023-04-28T03:18:43.502Z,55.78
2023-04-28T03:21:38.261Z,55.70
2023-04-28T03:24:09.913Z,55.70
2023-04-28T03:26:39.374Z,55.74
2023-04-28T03:29:09.614Z,55.62
2023-04-28T03:31:40.504Z,55.65
2023-04-28T03:34:12.439Z,55.94
2023-04-28T03:36:41.690Z,56.05
2023-04-28T03:39:19.788Z,56.21
2023-04-28T03:41:49.592Z,56.20
2023-04-28T03:44:40.149Z,56.05
2023-04-28T03:47:09.190Z,56.24
2023-04-28T03:49:38.584Z,56.45
2023-04-28T03:52:09.431Z,56.36
2023-04-28T03:54:41.724Z,56.27
2023-04-28T03:57:11.557Z,56.20
2023-04-28T03:59:44.882Z,56.25
2023-04-28T04:02:15.398Z,56.11
2023-04-28T04:04:44.797Z,56.28
2023-04-28T04:07:16.466Z,56.37
2023-04-28T04:09:48.448Z,56.49
2023-04-28T04:12:18.331Z,56.50
2023-04-28T04:14:49.610Z,56.57
2023-04-28T04:17:19.944Z,56.57
2023-04-28T04:19:49.193Z,56.81
2023-04-28T04:23:12.566Z,57.17
2023-04-28T04:29:45.788Z,57.41
2023-04-28T04:32:20.645Z,57.39
2023-04-28T04:34:52.038Z,57.44
2023-04-28T04:37:23.501Z,57.45
2023-04-28T04:40:02.005Z,57.45
2023-04-28T04:42:37.571Z,57.71
2023-04-28T04:45:15.066Z,57.63
2023-04-28T04:47:48.571Z,57.64
2023-04-28T04:50:18.009Z,57.49
2023-04-28T04:52:47.034Z,57.55
2023-04-28T04:55:19.137Z,57.63
2023-04-28T04:57:48.663Z,57.50
2023-04-28T05:00:38.192Z,57.89
2023-04-28T05:03:09.861Z,58.13
2023-04-28T05:05:44.370Z,57.90
2023-04-28T05:08:20.860Z,58.15
2023-04-28T05:10:54.280Z,58.06
2023-04-28T05:13:24.297Z,58.57
2023-04-28T05:16:00.959Z,58.24
2023-04-28T05:18:51.226Z,58.50
2023-04-28T05:21:51.292Z,58.48
2023-04-28T05:24:23.989Z,58.19
2023-04-28T05:26:55.025Z,58.16
2023-04-28T05:29:29.532Z,57.87
2023-04-28T05:31:58.871Z,57.73
2023-04-28T05:34:40.005Z,57.81
2023-04-28T05:37:14.718Z,57.72
2023-04-28T05:39:47.235Z,57.76
2023-04-28T05:42:16.439Z,57.72
2023-04-28T05:44:49.512Z,57.60
2023-04-28T05:47:23.605Z,57.39
2023-04-28T05:49:52.980Z,57.56
2023-04-28T05:52:22.588Z,57.48
2023-04-28T05:54:51.772Z,57.34
2023-04-28T05:57:26.363Z,57.52
2023-04-28T05:59:58.619Z,57.53
2023-04-28T06:02:29.904Z,57.47
2023-04-28T06:05:00.180Z,57.66
2023-04-28T06:07:31.515Z,57.58
2023-04-28T06:10:02.230Z,57.19
2023-04-28T06:12:34.647Z,57.19
2023-04-28T06:15:04.329Z,57.36
2023-04-28T06:17:36.985Z,57.25
2023-04-28T06:20:08.334Z,57.09
2023-04-28T06:23:05.541Z,56.98
2023-04-28T06:25:36.870Z,57.08
2023-04-28T06:28:07.984Z,56.75
2023-04-28T06:30:37.696Z,56.90
2023-04-28T06:33:06.811Z,56.71
2023-04-28T06:35:40.405Z,56.88
2023-04-28T06:38:10.721Z,56.39
2023-04-28T06:40:41.670Z,56.45
2023-04-28T06:43:12.424Z,56.42
2023-04-28T06:45:58.289Z,56.52
2023-04-28T06:48:28.554Z,56.30
2023-04-28T06:50:58.008Z,56.19
2023-04-28T06:53:28.073Z,56.19
2023-04-28T06:55:57.685Z,56.03
2023-04-28T06:58:29.431Z,56.01
2023-04-28T07:01:00.448Z,55.76
2023-04-28T07:03:29.486Z,55.64
2023-04-28T07:05:59.236Z,55.51
2023-04-28T07:08:31.255Z,55.60
2023-04-28T07:11:05.085Z,55.45
2023-04-28T07:13:34.371Z,55.30
2023-04-28T07:16:04.277Z,54.55
2023-04-28T07:18:34.704Z,52.69
2023-04-28T07:21:05.618Z,51.48
2023-04-28T07:23:35.478Z,50.21
2023-04-28T07:26:12.659Z,49.40
2023-04-28T07:28:48.069Z,48.68
2023-04-28T07:31:17.896Z,48.45
2023-04-28T07:33:50.471Z,48.01
2023-04-28T07:36:20.241Z,47.53
2023-04-28T07:38:50.492Z,47.59
2023-04-28T07:41:20.689Z,47.71
2023-04-28T07:43:50.344Z,46.99
2023-04-28T07:46:20.544Z,46.34
2023-04-28T07:48:50.113Z,46.61
2023-04-28T07:51:46.744Z,47.90
2023-04-28T07:54:20.130Z,47.74
2023-04-28T07:56:50.534Z,47.52
2023-04-28T07:59:20.977Z,48.30
2023-04-28T08:01:51.263Z,49.00
2023-04-28T08:04:20.763Z,49.05
2023-04-28T08:06:51.976Z,48.08
2023-04-28T08:09:22.298Z,46.98
2023-04-28T08:11:52.181Z,46.17
2023-04-28T08:14:25.353Z,45.13
2023-04-28T08:16:55.122Z,44.70
2023-04-28T08:19:24.820Z,45.07
2023-04-28T08:22:00.099Z,44.28
2023-04-28T08:27:59.411Z,42.61
2023-04-28T08:30:28.741Z,42.23
2023-04-28T08:33:04.078Z,42.98
2023-04-28T08:35:34.504Z,41.39
2023-04-28T08:38:07.815Z,40.40
2023-04-28T08:40:43.862Z,40.73
2023-04-28T08:43:19.013Z,41.31
2023-04-28T08:45:52.938Z,42.10
2023-04-28T08:48:24.263Z,41.53
2023-04-28T08:51:00.420Z,41.55
2023-04-28T08:53:33.295Z,41.11
2023-04-28T08:56:06.158Z,41.77
2023-04-28T08:58:38.521Z,41.70
2023-04-28T09:01:12.112Z,42.03
2023-04-28T09:03:44.066Z,41.93
2023-04-28T09:06:15.558Z,41.88
2023-04-28T09:08:47.472Z,40.60
2023-04-28T09:11:19.974Z,40.04
2023-04-28T09:13:50.725Z,39.72
2023-04-28T09:16:20.032Z,39.47
2023-04-28T09:18:58.297Z,39.43
2023-04-28T09:21:29.351Z,39.09
2023-04-28T09:24:00.255Z,38.52
2023-04-28T09:26:51.794Z,38.77
2023-04-28T09:29:23.257Z,38.81
2023-04-28T09:31:55.434Z,38.68
2023-04-28T09:34:26.813Z,38.38
2023-04-28T09:36:59.738Z,37.72
2023-04-28T09:39:32.904Z,39.16
2023-04-28T09:42:06.702Z,38.89
2023-04-28T09:44:36.777Z,38.21
2023-04-28T09:47:22.708Z,38.15
2023-04-28T09:49:58.313Z,37.39
2023-04-28T09:52:53.339Z,37.18
2023-04-28T09:55:27.557Z,36.50
2023-04-28T09:58:00.735Z,36.64
2023-04-28T10:00:32.963Z,37.44
2023-04-28T10:03:08.489Z,36.71
2023-04-28T10:05:45.010Z,36.90
2023-04-28T10:08:14.749Z,36.41
2023-04-28T10:10:47.195Z,36.37
2023-04-28T10:13:18.602Z,36.44
2023-04-28T10:15:50.252Z,36.81
2023-04-28T10:18:20.905Z,37.26
2023-04-28T10:20:51.672Z,37.21
2023-04-28T10:23:20.623Z,37.34
2023-04-28T10:25:54.058Z,36.99
2023-04-28T10:28:24.549Z,36.49
2023-04-28T10:31:13.291Z,36.40
2023-04-28T10:33:45.006Z,36.42
2023-04-28T10:36:36.336Z,36.56
2023-04-28T10:39:15.748Z,36.53
2023-04-28T10:41:48.086Z,36.48
2023-04-28T10:44:29.587Z,36.29
2023-04-28T10:47:11.119Z,35.78
2023-04-28T10:50:04.858Z,35.54
2023-04-28T10:53:01.193Z,35.47
2023-04-28T10:55:36.813Z,35.36
2023-04-28T10:58:18.626Z,35.97
2023-04-28T11:00:51.263Z,36.24
2023-04-28T11:03:42.301Z,35.52
2023-04-28T11:06:19.780Z,35.02
2023-04-28T11:08:51.240Z,36.09
2023-04-28T11:11:26.171Z,35.58
2023-04-28T11:14:17.160Z,34.90
2023-04-28T11:17:09.858Z,35.25
2023-04-28T11:19:42.467Z,35.32
2023-04-28T11:22:20.411Z,35.01
2023-04-28T11:24:59.448Z,35.22
2023-04-28T11:27:35.054Z,34.37
2023-04-28T11:30:06.675Z,34.33
2023-04-28T11:32:42.618Z,34.54
2023-04-28T11:35:14.646Z,35.36
2023-04-28T11:37:44.883Z,34.35
2023-04-28T11:40:18.754Z,34.80
2023-04-28T11:42:49.244Z,35.00
2023-04-28T11:45:21.602Z,34.39
2023-04-28T11:47:51.752Z,34.71
2023-04-28T11:50:37.035Z,34.09
2023-04-28T11:53:09.527Z,33.57
2023-04-28T11:55:39.684Z,33.93
2023-04-28T11:58:24.192Z,33.96
2023-04-28T12:01:14.923Z,33.73
2023-04-28T12:03:48.507Z,33.81
2023-04-28T12:06:24.174Z,33.25
2023-04-28T12:08:55.165Z,33.22
2023-04-28T12:11:26.382Z,32.91
2023-04-28T12:14:06.816Z,32.70
2023-04-28T12:16:39.628Z,32.85
2023-04-28T12:19:11.006Z,32.74
2023-04-28T12:21:43.970Z,32.40
2023-04-28T12:24:16.329Z,32.31
2023-04-28T12:26:46.841Z,32.99
2023-04-28T12:29:35.820Z,33.00
2023-04-28T12:32:05.672Z,32.71
2023-04-28T12:34:37.350Z,32.44
2023-04-28T12:37:09.865Z,32.93
2023-04-28T12:39:43.663Z,33.35
2023-04-28T12:42:13.758Z,32.84
2023-04-28T12:45:02.986Z,32.61
2023-04-28T12:47:32.589Z,32.14
2023-04-28T12:50:04.302Z,32.77
2023-04-28T12:56:41.550Z,32.98
2023-04-28T12:59:14.892Z,32.64
2023-04-28T13:01:46.678Z,32.35
2023-04-28T13:04:17.981Z,32.40
2023-04-28T13:07:13.134Z,32.65
2023-04-28T13:09:43.446Z,32.30
2023-04-28T13:12:15.168Z,32.07
2023-04-28T13:14:49.763Z,32.04
2023-04-28T13:17:21.242Z,32.15
2023-04-28T13:19:50.511Z,32.59
2023-04-28T13:22:22.242Z,32.47
2023-04-28T13:24:51.321Z,32.31
2023-04-28T13:27:21.778Z,32.64
2023-04-28T13:29:52.347Z,32.31
2023-04-28T13:32:21.544Z,31.85
2023-04-28T13:34:50.710Z,31.88
2023-04-28T13:37:19.793Z,31.85
2023-04-28T13:39:49.360Z,32.50
2023-04-28T13:42:22.248Z,32.56
2023-04-28T13:44:51.984Z,31.63
2023-04-28T13:47:20.913Z,31.26
2023-04-28T13:49:51.086Z,31.64
2023-04-28T13:52:58.378Z,31.89
2023-04-28T13:55:30.246Z,31.61
2023-04-28T13:58:04.919Z,31.15
2023-04-28T14:00:34.600Z,31.06
2023-04-28T14:03:04.954Z,31.27
2023-04-28T14:05:46.129Z,31.53
2023-04-28T14:08:20.723Z,32.25
2023-04-28T14:10:52.240Z,32.41
2023-04-28T14:13:25.434Z,31.69
2023-04-28T14:15:59.596Z,31.87
2023-04-28T14:18:30.813Z,31.68
2023-04-28T14:21:00.162Z,31.60
2023-04-28T14:23:30.247Z,31.66
2023-04-28T14:25:59.920Z,31.31
2023-04-28T14:28:29.530Z,31.44
2023-04-28T14:31:10.265Z,31.67
2023-04-28T14:33:39.238Z,31.85
2023-04-28T14:36:10.060Z,31.46
2023-04-28T14:38:41.222Z,31.67
2023-04-28T14:41:11.645Z,31.39
2023-04-28T14:43:42.183Z,31.36
2023-04-28T14:46:13.689Z,31.22
2023-04-28T14:49:27.841Z,31.03
2023-04-28T15:09:33.916Z,31.52
2023-04-28T15:12:07.363Z,31.27
2023-04-28T15:14:40.248Z,31.00
2023-04-28T15:17:10.232Z,30.88
2023-04-28T15:19:40.327Z,30.79
2023-04-28T15:22:23.815Z,30.80
2023-04-28T15:24:54.273Z,31.05
2023-04-28T15:27:24.351Z,30.86
2023-04-28T15:29:54.542Z,30.88
2023-04-28T15:32:25.023Z,30.90
2023-04-28T15:34:54.253Z,31.13
2023-04-28T15:37:39.980Z,31.03
2023-04-28T15:40:10.699Z,30.80
2023-04-28T15:42:42.481Z,30.76
2023-04-28T15:45:12.427Z,31.04
2023-04-28T15:47:44.211Z,31.25
2023-04-28T15:50:21.556Z,31.24
2023-04-28T15:52:51.525Z,31.09
2023-04-28T15:55:24.041Z,31.01
2023-04-28T15:57:53.525Z,30.96
2023-04-28T16:00:23.654Z,30.79
2023-04-28T16:02:53.149Z,30.86
2023-04-28T16:05:25.188Z,31.01
2023-04-28T16:07:58.390Z,31.06
2023-04-28T16:10:30.531Z,31.16
2023-04-28T16:13:00.543Z,31.23
2023-04-28T16:15:29.868Z,31.13
2023-04-28T16:18:02.593Z,31.26
2023-04-28T16:20:32.095Z,31.20
2023-04-28T16:23:04.767Z,31.14
2023-04-28T16:25:33.611Z,31.27
2023-04-28T16:28:03.138Z,31.37
2023-04-28T16:30:33.791Z,31.48
2023-04-28T16:33:05.227Z,31.51
2023-04-28T16:35:35.748Z,31.45
2023-04-28T16:38:05.475Z,31.20
2023-04-28T16:40:34.473Z,31.36
2023-04-28T16:43:05.377Z,31.20
2023-04-28T16:45:35.462Z,31.12
2023-04-28T16:48:06.712Z,31.34
2023-04-28T16:50:38.193Z,31.20
2023-04-28T16:53:08.719Z,30.97
2023-04-28T16:55:37.539Z,31.39
2023-04-28T16:58:10.670Z,31.33
2023-04-28T17:00:39.778Z,31.38
2023-04-28T17:03:09.909Z,31.38
2023-04-28T17:05:42.226Z,31.45
2023-04-28T17:08:11.684Z,31.56
2023-04-28T17:10:41.261Z,31.60
2023-04-28T17:13:10.705Z,31.51
2023-04-28T17:15:41.610Z,31.57
2023-04-28T17:18:11.425Z,31.53
2023-04-28T17:20:40.602Z,31.56
2023-04-28T17:23:10.140Z,31.70
2023-04-28T17:25:41.677Z,31.93
2023-04-28T17:28:10.492Z,32.12
2023-04-28T17:30:58.877Z,32.19
2023-04-28T17:33:28.996Z,32.23
2023-04-28T17:36:38.937Z,32.27
2023-04-28T17:39:22.353Z,32.41
2023-04-28T17:42:02.174Z,32.62
2023-04-28T17:44:32.188Z,32.59
2023-04-28T17:47:03.057Z,32.48
2023-04-28T17:49:33.960Z,32.61
2023-04-28T17:52:52.425Z,32.55
2023-04-28T17:55:24.799Z,32.77
2023-04-28T17:57:55.328Z,32.92
2023-04-28T18:00:25.121Z,33.12
2023-04-28T18:02:55.880Z,33.05
2023-04-28T18:05:26.457Z,33.30
2023-04-28T18:07:56.595Z,33.55
2023-04-28T18:10:28.929Z,33.60
2023-04-28T18:13:00.128Z,33.60
2023-04-28T18:15:36.788Z,33.66
2023-04-28T18:18:07.431Z,33.90
2023-04-28T18:20:38.680Z,33.85
2023-04-28T18:23:10.995Z,34.17
2023-04-28T18:25:44.525Z,34.20
2023-04-28T18:28:14.091Z,34.21
2023-04-28T18:30:44.546Z,33.97
2023-04-28T18:33:22.117Z,34.42
2023-04-28T18:36:06.098Z,34.14
2023-04-28T18:38:42.161Z,34.39
2023-04-28T18:41:19.962Z,34.44
2023-04-28T18:43:53.526Z,34.48
2023-04-28T18:46:26.886Z,34.79
2023-04-28T18:49:00.703Z,34.57
2023-04-28T18:51:33.735Z,34.75
2023-04-28T18:54:05.839Z,34.42
2023-04-28T18:56:37.827Z,34.83
2023-04-28T18:59:10.920Z,34.81
2023-04-28T19:01:42.547Z,34.77
2023-04-28T19:04:12.250Z,34.99
2023-04-28T19:06:44.189Z,34.97
2023-04-28T19:09:15.116Z,35.08
2023-04-28T19:11:47.853Z,35.12
2023-04-28T19:14:22.482Z,34.90
2023-04-28T19:16:57.724Z,35.47
2023-04-28T19:19:28.521Z,35.57
2023-04-28T19:22:01.974Z,35.58
2023-04-28T19:24:34.748Z,35.50
2023-04-28T19:27:05.636Z,35.42
2023-04-28T19:29:35.346Z,35.82
2023-04-28T19:32:06.656Z,35.79
2023-04-28T19:34:40.340Z,36.03
2023-04-28T19:37:14.685Z,36.05
2023-04-28T19:39:47.169Z,35.92
2023-04-28T19:42:20.580Z,36.15
2023-04-28T19:44:56.803Z,36.27
2023-04-28T19:47:31.777Z,36.13
2023-04-28T19:50:02.977Z,36.25
2023-04-28T19:52:59.920Z,36.38
2023-04-28T19:55:34.849Z,36.35
2023-04-28T19:58:07.721Z,36.41
2023-04-28T20:00:43.116Z,36.48
2023-04-28T20:03:13.989Z,36.61
2023-04-28T20:05:51.349Z,36.61
2023-04-28T20:08:25.119Z,36.60
2023-04-28T20:10:55.311Z,36.84
2023-04-28T20:13:28.415Z,36.86
2023-04-28T20:16:01.750Z,36.89
2023-04-28T20:18:32.738Z,37.03
2023-04-28T20:21:06.776Z,36.97
2023-04-28T20:23:38.539Z,37.16
2023-04-28T20:26:17.523Z,37.07
2023-04-28T20:28:48.587Z,37.05
2023-04-28T20:31:37.715Z,37.24
2023-04-28T20:34:08.108Z,37.20
2023-04-28T20:36:39.011Z,37.21
2023-04-28T20:39:12.901Z,37.21
2023-04-28T20:41:42.193Z,37.36
2023-04-28T20:44:12.439Z,37.67
2023-04-28T20:46:46.881Z,37.59
2023-04-28T20:49:16.642Z,37.96
2023-04-28T20:52:12.551Z,37.97
2023-04-28T20:54:44.193Z,37.94
2023-04-28T20:57:14.930Z,37.86
2023-04-28T20:59:44.130Z,37.81
2023-04-28T21:02:13.474Z,38.08
2023-04-28T21:04:42.577Z,38.19
2023-04-28T21:07:11.156Z,38.16
2023-04-28T21:09:42.736Z,38.52
2023-04-28T21:12:12.729Z,38.32
2023-04-28T21:14:42.516Z,38.63
2023-04-28T21:17:15.015Z,38.62
2023-04-28T21:19:44.224Z,38.59
2023-04-28T21:22:14.557Z,38.57
2023-04-28T21:24:44.400Z,38.75
2023-04-28T21:27:15.607Z,38.76
2023-04-28T21:29:46.331Z,38.74
2023-04-28T21:32:17.356Z,38.82
2023-04-28T21:34:49.808Z,38.78
2023-04-28T21:37:18.601Z,38.88
2023-04-28T21:39:49.872Z,39.00
2023-04-28T21:42:20.060Z,38.77
2023-04-28T21:44:49.584Z,38.87
2023-04-28T21:47:21.894Z,38.82
2023-04-28T21:49:51.487Z,39.13
2023-04-28T21:52:46.815Z,38.92
2023-04-28T21:55:17.542Z,38.87
2023-04-28T21:57:50.795Z,39.05
2023-04-28T22:00:23.467Z,39.29
2023-04-28T22:02:53.133Z,38.99
2023-04-28T22:05:25.077Z,38.94
2023-04-28T22:07:57.123Z,38.98
2023-04-28T22:10:30.958Z,38.98
2023-04-28T22:13:13.773Z,39.26
2023-04-28T22:15:44.137Z,39.27
2023-04-28T22:18:15.423Z,39.39
2023-04-28T22:20:46.029Z,39.39
2023-04-28T22:23:17.258Z,39.11
2023-04-28T22:25:47.423Z,39.40
2023-04-28T22:28:18.749Z,39.37
2023-04-28T22:30:48.447Z,39.37
2023-04-28T22:33:22.663Z,39.64
2023-04-28T22:35:54.667Z,39.53
2023-04-28T22:38:30.111Z,39.51
2023-04-28T22:41:06.183Z,39.71
2023-04-28T22:43:43.099Z,39.79
2023-04-28T22:46:25.483Z,39.87
2023-04-28T22:49:01.863Z,39.94
2023-04-28T22:51:32.036Z,40.01
2023-04-28T22:54:03.406Z,39.85
2023-04-28T22:56:32.666Z,40.14
2023-04-28T22:59:02.805Z,39.96
2023-04-28T23:01:32.657Z,40.03
2023-04-28T23:04:08.605Z,40.10
2023-04-28T23:06:41.271Z,40.26
2023-04-28T23:09:10.007Z,40.37
2023-04-28T23:11:40.776Z,40.29
2023-04-28T23:14:11.096Z,40.56
2023-04-28T23:16:46.227Z,40.43
2023-04-28T23:19:22.459Z,40.49
2023-04-28T23:21:52.784Z,40.59
2023-04-28T23:24:27.735Z,40.88
2023-04-28T23:26:57.197Z,40.77
2023-04-28T23:29:30.954Z,41.29
2023-04-28T23:32:01.368Z,41.06
2023-04-28T23:34:31.880Z,41.41
2023-04-28T23:37:02.436Z,41.35
2023-04-28T23:39:32.762Z,41.69
2023-04-28T23:42:03.150Z,41.69
2023-04-28T23:44:34.059Z,41.38
2023-04-28T23:47:04.275Z,41.71
2023-04-28T23:49:40.655Z,41.89
2023-04-28T23:52:10.908Z,41.84
2023-04-28T23:54:44.883Z,42.41
2023-04-28T23:57:15.516Z,42.52
2023-04-28T23:59:46.101Z,43.04
